Time;durP1;ratioP1;P1;durP2;ratioP2;P2;SDS_P1;SDS_P2;PMS_P1;PMS_P2;Temp;Humidity;BMP_temperature;BMP_pressure;BME280_temperature;BME280_humidity;BME280_pressure;Samples;Min_cycle;Max_cycle;Signal;HPM_P1;HPM_P2
2022/09/20 06:21:41;;;;;;;5.07;3.47;;;;;;;14.59;51.88;100575.91;4194414;28;20238;-62
2022/09/20 06:23:55;;;;;;;5.27;3.40;;;;;;;15.20;52.28;100431.81;4087688;28;20276;-33
2022/09/20 06:26:06;;;;;;;5.70;3.53;;;;;;;15.68;50.63;100461.28;4126501;28;20274;-32
2022/09/20 06:28:19;;;;;;;4.37;3.37;;;;;;;16.05;49.45;100478.50;4103047;28;20220;-35
2022/09/20 06:30:49;;;;;;;7.27;3.47;;;;;;;16.91;48.96;100334.16;4122292;28;20236;-36
2022/09/20 06:32:59;;;;;;;6.50;3.40;;;;;;;16.97;48.54;100377.41;4121863;28;20256;-33
2022/09/20 06:35:07;;;;;;;4.50;3.30;;;;;;;16.24;49.34;100487.94;4123717;28;20723;-35
2022/09/20 06:42:37;;;;;;;7.33;3.23;;;;;;;14.79;52.62;100508.72;4124013;28;20229;-30
2022/09/20 06:44:42;;;;;;;6.97;3.57;;;;;;;15.92;50.38;100429.97;4123351;28;20510;-34
2022/09/20 06:46:43;;;;;;;7.00;3.50;;;;;;;15.73;51.28;100415.19;4124590;28;20807;-32
2022/09/20 06:48:51;;;;;;;5.97;3.40;;;;;;;15.98;50.94;100405.16;4126238;28;20222;-33
2022/09/20 06:51:00;;;;;;;6.53;3.07;;;;;;;16.19;49.83;100474.22;4119556;28;20221;-31
2022/09/20 06:53:02;;;;;;;8.03;3.10;;;;;;;16.28;49.92;100448.16;4120664;28;20256;-32
2022/09/20 06:55:06;;;;;;;4.57;3.10;;;;;;;14.73;53.38;100526.28;4122856;28;20688;-31
2022/09/20 06:57:17;;;;;;;8.27;3.67;;;;;;;14.85;53.23;100502.69;4119064;28;20595;-31
2022/09/20 06:59:19;;;;;;;7.07;3.50;;;;;;;14.35;54.04;100541.13;4120990;28;20240;-36
2022/09/20 07:01:21;;;;;;;4.90;3.40;;;;;;;15.62;51.38;100452.13;4119836;28;20248;-35
2022/09/20 07:03:31;;;;;;;6.97;3.30;;;;;;;15.63;52.01;100421.59;4119973;28;20249;-36
2022/09/20 07:05:34;;;;;;;7.30;3.40;;;;;;;15.67;52.07;100379.19;4125045;28;20210;-35
2022/09/20 07:07:36;;;;;;;4.97;3.60;;;;;;;14.42;53.80;100555.50;4124948;28;20240;-31
2022/09/20 07:09:44;;;;;;;7.33;3.40;;;;;;;16.47;50.72;100334.97;4118185;28;20210;-31
2022/09/20 07:11:46;;;;;;;7.97;3.30;;;;;;;15.61;52.42;100442.34;4122716;28;20210;-33
2022/09/20 07:13:57;;;;;;;10.40;3.87;;;;;;;16.61;50.19;100383.50;4127300;28;20206;-34
2022/09/20 07:16:07;;;;;;;6.23;3.40;;;;;;;15.71;51.75;100463.63;4120422;28;20245;-36
2022/09/20 07:18:08;;;;;;;5.73;3.13;;;;;;;15.68;52.41;100413.03;4123876;28;20627;-34
2022/09/20 07:20:10;;;;;;;5.57;3.23;;;;;;;16.67;50.56;100342.47;4123676;28;20256;-32
2022/09/20 07:22:22;;;;;;;8.00;3.30;;;;;;;16.30;50.63;100459.53;4121279;28;20235;-33
2022/09/20 07:24:23;;;;;;;5.63;3.37;;;;;;;15.96;51.18;100498.34;4123870;28;20296;-35
2022/09/20 07:26:28;;;;;;;4.83;3.20;;;;;;;17.05;49.73;100340.50;4122263;28;20225;-34
2022/09/20 07:28:36;;;;;;;4.13;2.80;;;;;;;16.66;49.98;100429.44;4125130;28;20241;-31
2022/09/20 07:30:37;;;;;;;6.00;3.10;;;;;;;16.66;50.40;100432.13;4124478;28;20250;-32
2022/09/20 07:32:39;;;;;;;7.13;3.10;;;;;;;16.19;50.44;100517.16;4121176;28;20573;-31
2022/09/20 07:34:48;;;;;;;6.23;3.60;;;;;;;17.46;48.71;100353.47;4125448;28;20206;-35
2022/09/20 07:36:50;;;;;;;7.90;3.27;;;;;;;17.89;47.90;100358.03;4122103;28;20313;-32
2022/09/20 07:38:51;;;;;;;5.33;3.73;;;;;;;17.64;47.36;100454.38;4121201;28;20300;-38
2022/09/20 07:41:01;;;;;;;6.60;2.80;;;;;;;17.43;47.58;100472.13;4122853;28;20241;-35
2022/09/20 07:43:03;;;;;;;5.07;2.70;;;;;;;17.89;47.09;100448.66;4120844;28;20227;-32
2022/09/20 07:45:05;;;;;;;8.57;3.07;;;;;;;18.28;46.49;100386.34;4127487;28;20246;-33
2022/09/20 07:47:14;;;;;;;5.53;3.17;;;;;;;18.11;47.00;100449.53;4124391;28;20275;-32
2022/09/20 07:49:16;;;;;;;5.90;2.90;;;;;;;17.35;48.92;100552.03;4129611;28;20216;-33
2022/09/20 07:51:17;;;;;;;5.03;3.07;;;;;;;17.23;49.14;100520.19;4122840;28;20252;-32
2022/09/20 07:53:26;;;;;;;7.17;2.80;;;;;;;16.95;49.68;100548.69;4124150;28;20221;-33
2022/09/20 07:55:27;;;;;;;8.33;2.57;;;;;;;17.74;48.11;100440.63;4119136;28;20249;-33
2022/09/20 07:57:35;;;;;;;4.50;2.40;;;;;;;18.00;47.24;100435.53;4125291;28;20266;-33
2022/09/20 07:59:43;;;;;;;3.50;2.40;;;;;;;18.00;46.90;100475.91;4121792;28;20422;-31
2022/09/20 08:01:44;;;;;;;5.27;2.70;;;;;;;18.00;46.90;100459.75;4126261;28;20210;-32
2022/09/20 08:03:46;;;;;;;6.60;2.80;;;;;;;18.62;45.98;100394.69;4128563;28;20865;-35
2022/09/20 08:06:01;;;;;;;6.70;3.27;;;;;;;18.52;45.15;100468.53;4126370;28;20257;-33
2022/09/20 08:08:03;;;;;;;4.50;2.63;;;;;;;18.70;45.20;100424.97;4126124;28;20209;-31
2022/09/20 08:10:05;;;;;;;7.63;2.93;;;;;;;18.49;45.75;100503.97;4132183;28;20249;-32
2022/09/20 08:12:14;;;;;;;6.67;3.50;;;;;;;17.32;48.89;100590.84;4124031;28;20657;-32
2022/09/20 08:14:42;;;;;;;11.77;4.40;;;;;;;18.08;47.53;100490.28;4112773;28;20296;-34
2022/09/20 08:16:46;;;;;;;4.93;2.80;;;;;;;16.35;50.27;100656.63;4109214;28;20249;-32
2022/09/20 08:18:54;;;;;;;10.57;3.83;;;;;;;16.15;51.90;100602.53;4127279;28;20703;-33
2022/09/20 08:21:09;;;;;;;6.30;2.57;;;;;;;17.01;49.34;100515.69;4126214;28;20226;-34
2022/09/20 08:23:10;;;;;;;7.50;2.70;;;;;;;17.95;47.76;100437.97;4125639;28;20265;-34
2022/09/20 08:25:24;;;;;;;5.47;2.60;;;;;;;18.09;48.08;100454.25;4125183;28;20468;-32
2022/09/20 08:27:32;;;;;;;7.77;3.10;;;;;;;17.51;48.05;100551.81;4124981;28;20221;-33
2022/09/20 08:29:33;;;;;;;6.10;2.90;;;;;;;17.47;48.63;100535.22;4123618;28;20250;-33
2022/09/20 08:31:38;;;;;;;6.37;2.60;;;;;;;18.01;47.52;100482.94;4131480;28;20445;-32
2022/09/20 08:33:49;;;;;;;6.03;2.40;;;;;;;18.78;45.94;100405.16;4123361;28;20309;-33
2022/09/20 08:35:50;;;;;;;4.10;2.20;;;;;;;18.53;45.67;100489.06;4124627;28;20634;-32
2022/09/20 08:37:59;;;;;;;7.10;2.33;;;;;;;18.58;45.90;100469.66;4125249;28;20737;-32
2022/09/20 08:40:29;;;;;;;5.20;2.70;;;;;;;18.75;45.31;100459.41;4118946;28;20210;-35
2022/09/20 08:42:40;;;;;;;3.93;2.33;;;;;;;19.31;44.18;100404.63;4127290;28;20228;-33
2022/09/20 08:44:49;;;;;;;8.20;2.90;;;;;;;19.97;42.85;100376.19;4125898;28;20213;-35
2022/09/20 08:47:20;;;;;;;5.97;2.40;;;;;;;19.32;43.77;100479.94;4123962;28;20699;-32
2022/09/20 08:49:29;;;;;;;9.97;2.50;;;;;;;18.66;45.83;100528.78;4124106;28;20663;-33
2022/09/20 08:51:34;;;;;;;7.20;3.13;;;;;;;18.37;46.33;100521.63;4127162;28;20213;-35
2022/09/20 08:53:42;;;;;;;6.43;2.30;;;;;;;17.95;46.35;100558.19;4126598;28;20229;-32
2022/09/20 08:55:50;;;;;;;5.87;2.23;;;;;;;18.23;46.24;100488.38;4122055;28;20245;-35
2022/09/20 08:57:54;;;;;;;6.73;2.57;;;;;;;19.10;43.81;100414.50;4127754;28;20231;-33
2022/09/20 08:59:58;;;;;;;4.63;2.20;;;;;;;17.70;46.19;100606.06;4122885;28;20245;-35
2022/09/20 09:02:17;;;;;;;9.17;2.80;;;;;;;17.26;46.94;100613.03;4123860;28;20229;-37
2022/09/20 09:04:30;;;;;;;7.70;2.40;;;;;;;17.76;46.40;100514.72;4121956;28;20534;-34
2022/09/20 09:06:32;;;;;;;5.13;2.30;;;;;;;18.33;45.88;100445.81;4117437;28;20265;-32
2022/09/20 09:08:43;;;;;;;6.27;2.10;;;;;;;18.46;45.14;100479.25;4126997;28;20227;-36
2022/09/20 09:11:00;;;;;;;6.90;2.47;;;;;;;18.89;44.35;100447.72;4127142;28;20248;-32
2022/09/20 09:13:04;;;;;;;7.50;2.30;;;;;;;18.53;45.03;100526.78;4125133;28;20264;-35
2022/09/20 09:15:28;;;;;;;7.27;2.37;;;;;;;18.73;45.05;100512.66;4125371;28;20213;-33
2022/09/20 09:17:30;;;;;;;4.63;2.20;;;;;;;18.63;45.11;100496.84;4120661;28;20253;-33
2022/09/20 09:19:46;;;;;;;7.97;2.07;;;;;;;18.61;44.62;100506.97;4121456;28;20546;-34
2022/09/20 09:22:00;;;;;;;6.87;2.40;;;;;;;19.77;43.15;100401.28;4122859;28;20213;-33
2022/09/20 09:24:18;;;;;;;5.57;2.30;;;;;;;19.38;43.24;100466.69;4124995;28;20238;-34
2022/09/20 09:26:22;;;;;;;8.40;2.17;;;;;;;18.65;44.27;100540.56;4122525;28;20714;-35
2022/09/20 09:28:28;;;;;;;7.20;2.50;;;;;;;19.83;43.06;100396.94;4122887;28;20212;-34
2022/09/20 09:30:41;;;;;;;6.87;2.47;;;;;;;19.07;43.81;100522.69;4122978;28;20228;-33
2022/09/20 09:32:43;;;;;;;6.20;2.43;;;;;;;20.28;41.67;100380.19;4123749;28;20212;-34
2022/09/20 09:34:45;;;;;;;4.07;2.03;;;;;;;20.22;41.46;100419.63;4123143;28;20213;-32
2022/09/20 09:36:54;;;;;;;4.70;2.60;;;;;;;18.93;43.59;100547.88;4121254;28;20280;-33
2022/09/20 09:39:15;;;;;;;6.23;2.57;;;;;;;20.77;40.69;100355.41;4124925;28;20238;-33
2022/09/20 09:41:16;;;;;;;4.37;2.47;;;;;;;21.11;40.46;100372.38;4120338;28;20209;-33
2022/09/20 09:43:34;;;;;;;5.23;2.30;;;;;;;20.96;40.62;100410.47;4120152;28;20328;-32
2022/09/20 09:45:37;;;;;;;6.43;2.47;;;;;;;20.55;41.25;100460.19;4120853;28;20210;-34
2022/09/20 09:47:39;;;;;;;6.77;2.57;;;;;;;20.07;41.44;100509.72;4120541;28;20217;-33
2022/09/20 09:50:05;;;;;;;3.07;2.20;;;;;;;21.24;39.90;100386.88;4124924;28;20206;-34
2022/09/20 09:52:18;;;;;;;6.93;2.33;;;;;;;21.11;39.79;100414.81;4126138;28;20588;-32
2022/09/20 09:54:24;;;;;;;5.57;2.03;;;;;;;20.52;41.03;100498.41;4106469;28;20504;-34
2022/09/20 09:57:07;;;;;;;4.57;2.30;;;;;;;20.66;40.57;100452.50;4104891;28;20258;-34
2022/09/20 09:59:41;;;;;;;3.57;1.97;;;;;;;20.89;40.21;100420.44;4109429;28;20301;-33
2022/09/20 10:02:18;;;;;;;5.53;2.20;;;;;;;21.62;38.74;100351.72;4120566;28;20238;-33
2022/09/20 10:04:38;;;;;;;5.57;2.20;;;;;;;20.62;39.27;100500.72;4107157;28;20238;-32
2022/09/20 10:07:10;;;;;;;7.90;2.83;;;;;;;20.92;39.96;100473.25;4092101;28;20525;-32
2022/09/20 10:09:17;;;;;;;6.57;2.43;;;;;;;21.44;38.68;100414.66;4098461;28;20297;-34
2022/09/20 10:12:25;;;;;;;7.50;2.23;;;;;;;21.76;38.49;100403.94;4123146;28;20220;-35
2022/09/20 10:14:40;;;;;;;4.07;2.20;;;;;;;21.48;39.04;100447.56;4106196;28;20809;-33
2022/09/20 10:17:00;;;;;;;7.27;2.60;;;;;;;20.87;39.48;100519.84;4121523;28;20249;-31
2022/09/20 10:19:05;;;;;;;3.73;1.93;;;;;;;20.60;38.01;100540.59;4120941;28;20244;-32
2022/09/20 10:21:23;;;;;;;3.33;2.00;;;;;;;20.42;38.13;100557.44;4120204;28;20289;-31
2022/09/20 10:23:52;;;;;;;4.90;1.80;;;;;;;21.02;37.39;100476.38;4121807;28;20264;-32
2022/09/20 10:26:27;;;;;;;2.23;1.93;;;;;;;21.48;36.54;100444.84;4088648;28;20229;-31
2022/09/20 10:29:25;;;;;;;5.20;2.43;;;;;;;21.63;36.98;100442.72;4093359;28;20229;-33
2022/09/20 10:31:48;;;;;;;7.33;2.20;;;;;;;21.20;37.28;100504.66;4100116;28;20220;-34
2022/09/20 10:34:19;;;;;;;5.00;1.93;;;;;;;20.81;38.80;100459.31;4115588;28;20226;-34
2022/09/20 10:36:46;;;;;;;6.43;2.10;;;;;;;21.21;38.52;100430.56;4102033;28;20279;-34
2022/09/20 10:39:12;;;;;;;2.50;1.80;;;;;;;21.66;37.67;100390.88;4096265;28;20245;-31
2022/09/20 10:44:15;;;;;;;6.17;2.47;;;;;;;21.04;37.90;100492.38;4125629;28;20272;-32
2022/09/20 10:46:30;;;;;;;3.57;1.80;;;;;;;21.57;38.20;100443.56;4125564;28;20280;-33
2022/09/20 10:48:50;;;;;;;5.37;2.40;;;;;;;20.94;38.41;100504.44;4124000;28;20240;-34
2022/09/20 10:51:16;;;;;;;3.97;1.97;;;;;;;21.59;37.70;100432.53;4099874;28;20264;-32
2022/09/20 10:53:37;;;;;;;3.23;1.93;;;;;;;20.94;37.38;100520.66;4106248;28;20318;-32
2022/09/20 10:55:58;;;;;;;4.83;2.10;;;;;;;21.63;37.31;100439.19;4120895;28;20262;-32
2022/09/20 10:58:34;;;;;;;4.07;2.00;;;;;;;20.99;38.59;100501.16;4122696;28;20429;-32
